Date,TemperatureHighF,TemperatureAvgF,TemperatureLowF,DewpointHighF,DewpointAvgF,DewpointLowF,HumidityHigh,HumidityAvg,HumidityLow,PressureMaxIn,PressureMinIn,WindSpeedMaxMPH,WindSpeedAvgMPH,GustSpeedMaxMPH,PrecipitationSumIn
2013-7-1,75.7,72.1,69.0,68.1,65.4,61.3,90,80,67,30.04,29.94,41,23,44,0.00
2013-7-2,74.4,71.3,67.5,68.2,65.3,62.2,90,81,70,30.02,29.93,33,19,36,0.01
2013-7-3,75.1,72.3,69.9,67.4,64.5,61.6,87,77,68,30.03,29.94,30,16,33,0.00
2013-7-4,75.3,72.0,69.2,67.0,65.5,62.5,89,80,71,30.07,29.97,28,14,29,0.00
2013-7-5,75.0,72.3,70.9,68.7,65.7,60.7,88,80,69,30.06,29.98,24,12,27,0.00
2013-7-6,76.8,72.6,70.3,67.5,65.3,62.4,86,78,67,30.05,29.98,23,8,25,0.00
2013-7-7,76.8,72.9,70.0,67.2,62.3,47.3,85,70,38,30.03,29.89,33,12,33,0.00
2013-7-9,78.1,75.0,72.5,68.7,67.2,64.2,85,77,67,30.14,30.01,50,29,54,0.00
2013-7-10,74.7,72.9,71.7,67.9,66.3,64.1,87,80,70,30.13,30.06,53,32,53,0.00
2013-7-11,77.0,73.0,70.6,66.9,65.2,62.9,85,77,63,30.09,29.98,53,29,55,0.00
2013-7-12,75.2,72.4,70.1,67.6,64.8,58.2,86,77,60,30.08,29.96,43,23,45,0.00
2013-7-13,76.0,72.6,70.0,65.8,64.1,61.5,84,75,65,30.04,29.92,42,21,42,0.00
2013-7-14,78.9,73.3,70.3,65.9,62.6,54.6,78,69,54,30.02,29.90,42,16,42,0.00
2013-7-15,77.7,73.9,69.2,67.3,64.2,62.0,84,72,63,30.03,29.92,31,12,31,0.00
2013-7-16,77.6,74.4,71.5,67.2,64.4,60.7,78,71,63,30.02,29.90,34,15,38,0.00
2013-7-17,76.5,73.3,71.0,67.6,63.4,56.2,81,72,53,30.03,29.92,40,19,41,0.00
2013-7-18,75.9,73.5,71.5,68.3,64.8,62.4,85,74,68,30.06,29.95,37,17,37,0.00
2013-7-19,79.1,75.0,71.7,68.5,65.9,62.7,82,74,67,30.09,29.96,40,14,40,0.00
2013-7-20,77.0,73.4,70.9,67.9,64.7,60.7,84,74,66,30.08,29.96,46,20,46,0.00
2013-7-21,76.3,73.4,70.8,68.1,64.2,58.5,90,73,60,30.05,29.92,40,21,41,0.00
2013-7-22,80.7,75.0,71.0,72.5,70.1,67.1,91,85,73,30.02,29.94,24,7,27,0.04
2013-7-23,79.3,75.8,73.4,71.5,69.8,68.2,88,82,73,30.03,29.93,27,5,29,0.04
2013-7-24,77.3,73.6,70.0,68.9,65.9,61.5,91,77,66,30.02,29.88,43,19,43,0.00
2013-7-25,76.1,72.9,69.5,67.1,64.6,61.4,91,75,64,30.01,29.88,43,20,43,0.00
2013-7-26,78.0,73.4,70.4,68.3,65.5,62.5,84,77,70,30.06,29.92,42,20,43,0.00
2013-7-27,76.4,73.2,70.2,67.1,64.4,59.5,89,74,59,30.06,29.91,48,24,48,0.00
2013-7-28,77.4,73.3,69.7,70.4,66.3,61.7,94,79,65,30.02,29.91,37,21,38,0.01
2013-7-29,75.3,73.1,69.7,73.8,70.9,66.6,96,93,75,30.00,29.77,47,20,47,1.25
2013-7-30,81.0,77.1,74.2,72.9,70.1,67.5,88,79,71,30.09,29.98,47,14,47,0.00
2013-7-31,79.1,74.4,72.3,70.0,66.9,63.4,88,78,63,30.10,29.95,55,32,56,0.00